sensor_id;sensor_type;location;lat;lon;timestamp;temperature;humidity
22765;DHT22;11549;50.852;3.816;2023-03-18T00:01:27;13.00;99.90
22765;DHT22;11549;50.852;3.816;2023-03-18T00:03:55;12.90;99.90
22765;DHT22;11549;50.852;3.816;2023-03-18T00:06:23;12.80;99.90
22765;DHT22;11549;50.852;3.816;2023-03-18T00:08:52;12.80;99.90
22765;DHT22;11549;50.852;3.816;2023-03-18T00:11:22;12.90;99.90
22765;DHT22;11549;50.852;3.816;2023-03-18T00:13:51;12.90;99.90
22765;DHT22;11549;50.852;3.816;2023-03-18T00:16:20;12.80;99.90
22765;DHT22;11549;50.852;3.816;2023-03-18T00:18:49;12.80;99.90
22765;DHT22;11549;50.852;3.816;2023-03-18T00:21:18;12.80;99.90
22765;DHT22;11549;50.852;3.816;2023-03-18T00:23:46;12.80;99.90
22765;DHT22;11549;50.852;3.816;2023-03-18T00:26:16;12.80;99.90
22765;DHT22;11549;50.852;3.816;2023-03-18T00:28:46;12.80;99.90
22765;DHT22;11549;50.852;3.816;2023-03-18T00:31:14;12.90;99.90
22765;DHT22;11549;50.852;3.816;2023-03-18T00:33:43;13.00;99.90
22765;DHT22;11549;50.852;3.816;2023-03-18T00:36:12;13.00;99.90
22765;DHT22;11549;50.852;3.816;2023-03-18T00:38:41;13.10;99.90
22765;DHT22;11549;50.852;3.816;2023-03-18T00:41:12;12.90;99.90
22765;DHT22;11549;50.852;3.816;2023-03-18T00:43:44;12.80;99.90
22765;DHT22;11549;50.852;3.816;2023-03-18T00:46:22;12.80;99.90
22765;DHT22;11549;50.852;3.816;2023-03-18T00:48:52;12.70;99.90
22765;DHT22;11549;50.852;3.816;2023-03-18T00:51:23;12.70;99.90
22765;DHT22;11549;50.852;3.816;2023-03-18T00:53:53;12.70;99.90
22765;DHT22;11549;50.852;3.816;2023-03-18T00:56:24;12.70;99.90
22765;DHT22;11549;50.852;3.816;2023-03-18T00:58:53;12.80;99.90
22765;DHT22;11549;50.852;3.816;2023-03-18T01:01:23;12.80;99.90
22765;DHT22;11549;50.852;3.816;2023-03-18T01:03:52;12.80;99.90
22765;DHT22;11549;50.852;3.816;2023-03-18T01:06:24;12.70;99.90
22765;DHT22;11549;50.852;3.816;2023-03-18T01:08:55;12.70;99.90
22765;DHT22;11549;50.852;3.816;2023-03-18T01:11:24;12.70;99.90
22765;DHT22;11549;50.852;3.816;2023-03-18T01:13:53;12.70;99.90
22765;DHT22;11549;50.852;3.816;2023-03-18T01:16:23;12.80;99.90
22765;DHT22;11549;50.852;3.816;2023-03-18T01:18:52;12.80;99.90
22765;DHT22;11549;50.852;3.816;2023-03-18T01:21:20;12.80;99.90
22765;DHT22;11549;50.852;3.816;2023-03-18T01:23:49;12.60;99.90
22765;DHT22;11549;50.852;3.816;2023-03-18T01:26:18;12.70;99.90
22765;DHT22;11549;50.852;3.816;2023-03-18T01:28:47;12.60;99.90
22765;DHT22;11549;50.852;3.816;2023-03-18T01:31:15;12.70;99.90
22765;DHT22;11549;50.852;3.816;2023-03-18T01:33:45;12.60;99.90
22765;DHT22;11549;50.852;3.816;2023-03-18T01:36:15;12.60;99.90
22765;DHT22;11549;50.852;3.816;2023-03-18T01:38:43;12.60;99.90
22765;DHT22;11549;50.852;3.816;2023-03-18T01:41:12;12.70;99.90
22765;DHT22;11549;50.852;3.816;2023-03-18T01:43:43;12.70;99.90
22765;DHT22;11549;50.852;3.816;2023-03-18T01:46:33;12.60;99.90
22765;DHT22;11549;50.852;3.816;2023-03-18T01:49:06;12.60;99.90
22765;DHT22;11549;50.852;3.816;2023-03-18T01:51:37;12.60;99.90
22765;DHT22;11549;50.852;3.816;2023-03-18T01:54:07;12.40;99.90
22765;DHT22;11549;50.852;3.816;2023-03-18T01:56:39;12.60;99.90
22765;DHT22;11549;50.852;3.816;2023-03-18T01:59:08;12.70;99.90
22765;DHT22;11549;50.852;3.816;2023-03-18T02:01:41;12.70;99.90
22765;DHT22;11549;50.852;3.816;2023-03-18T02:04:14;12.80;99.90
22765;DHT22;11549;50.852;3.816;2023-03-18T02:06:44;12.70;99.90
22765;DHT22;11549;50.852;3.816;2023-03-18T02:09:12;12.70;99.90
22765;DHT22;11549;50.852;3.816;2023-03-18T02:11:44;12.60;99.90
22765;DHT22;11549;50.852;3.816;2023-03-18T02:14:19;12.50;99.90
22765;DHT22;11549;50.852;3.816;2023-03-18T02:16:52;12.50;99.90
22765;DHT22;11549;50.852;3.816;2023-03-18T02:19:34;12.60;99.90
22765;DHT22;11549;50.852;3.816;2023-03-18T02:22:21;12.50;99.90
22765;DHT22;11549;50.852;3.816;2023-03-18T02:25:10;12.40;99.90
22765;DHT22;11549;50.852;3.816;2023-03-18T02:27:43;12.30;99.90
22765;DHT22;11549;50.852;3.816;2023-03-18T02:30:17;12.30;99.90
22765;DHT22;11549;50.852;3.816;2023-03-18T02:32:47;12.30;99.90
22765;DHT22;11549;50.852;3.816;2023-03-18T02:35:16;12.30;99.90
22765;DHT22;11549;50.852;3.816;2023-03-18T02:37:44;12.20;99.90
22765;DHT22;11549;50.852;3.816;2023-03-18T02:40:15;12.10;99.90
22765;DHT22;11549;50.852;3.816;2023-03-18T02:42:46;12.00;99.90
22765;DHT22;11549;50.852;3.816;2023-03-18T02:45:29;12.00;99.90
22765;DHT22;11549;50.852;3.816;2023-03-18T02:47:59;11.90;99.90
22765;DHT22;11549;50.852;3.816;2023-03-18T02:50:28;11.90;99.90
22765;DHT22;11549;50.852;3.816;2023-03-18T02:52:58;11.90;99.90
22765;DHT22;11549;50.852;3.816;2023-03-18T02:55:26;11.80;99.90
22765;DHT22;11549;50.852;3.816;2023-03-18T02:57:56;11.80;99.90
22765;DHT22;11549;50.852;3.816;2023-03-18T03:00:24;11.80;99.90
22765;DHT22;11549;50.852;3.816;2023-03-18T03:02:53;11.80;99.90
22765;DHT22;11549;50.852;3.816;2023-03-18T03:05:22;11.80;99.90
22765;DHT22;11549;50.852;3.816;2023-03-18T03:07:50;11.80;99.90
22765;DHT22;11549;50.852;3.816;2023-03-18T03:10:18;11.70;99.90
22765;DHT22;11549;50.852;3.816;2023-03-18T03:12:47;11.70;99.90
22765;DHT22;11549;50.852;3.816;2023-03-18T03:15:17;11.60;99.90
22765;DHT22;11549;50.852;3.816;2023-03-18T03:17:46;11.60;99.90
22765;DHT22;11549;50.852;3.816;2023-03-18T03:20:15;11.60;99.90
22765;DHT22;11549;50.852;3.816;2023-03-18T03:22:44;11.50;99.90
22765;DHT22;11549;50.852;3.816;2023-03-18T03:25:13;11.50;99.90
22765;DHT22;11549;50.852;3.816;2023-03-18T03:27:42;11.50;99.90
22765;DHT22;11549;50.852;3.816;2023-03-18T03:30:12;11.30;99.90
22765;DHT22;11549;50.852;3.816;2023-03-18T03:32:42;11.40;99.90
22765;DHT22;11549;50.852;3.816;2023-03-18T03:35:13;11.30;99.90
22765;DHT22;11549;50.852;3.816;2023-03-18T03:37:42;11.30;99.90
22765;DHT22;11549;50.852;3.816;2023-03-18T03:40:13;11.30;99.90
22765;DHT22;11549;50.852;3.816;2023-03-18T03:42:42;11.20;99.90
22765;DHT22;11549;50.852;3.816;2023-03-18T03:45:11;11.30;99.90
22765;DHT22;11549;50.852;3.816;2023-03-18T03:47:43;11.20;99.90
22765;DHT22;11549;50.852;3.816;2023-03-18T03:50:13;11.30;99.90
22765;DHT22;11549;50.852;3.816;2023-03-18T03:52:42;11.30;99.90
22765;DHT22;11549;50.852;3.816;2023-03-18T03:55:12;11.30;99.90
22765;DHT22;11549;50.852;3.816;2023-03-18T03:57:41;11.30;99.90
22765;DHT22;11549;50.852;3.816;2023-03-18T04:00:12;11.20;99.90
22765;DHT22;11549;50.852;3.816;2023-03-18T04:02:44;11.10;99.90
22765;DHT22;11549;50.852;3.816;2023-03-18T04:05:15;11.20;99.90
22765;DHT22;11549;50.852;3.816;2023-03-18T04:07:44;11.10;99.90
22765;DHT22;11549;50.852;3.816;2023-03-18T04:10:17;11.10;99.90
22765;DHT22;11549;50.852;3.816;2023-03-18T04:12:46;11.00;99.90
22765;DHT22;11549;50.852;3.816;2023-03-18T04:15:16;11.10;99.90
22765;DHT22;11549;50.852;3.816;2023-03-18T04:17:47;11.00;99.90
22765;DHT22;11549;50.852;3.816;2023-03-18T04:20:16;11.00;99.90
22765;DHT22;11549;50.852;3.816;2023-03-18T04:22:45;10.90;99.90
22765;DHT22;11549;50.852;3.816;2023-03-18T04:25:13;10.80;99.90
22765;DHT22;11549;50.852;3.816;2023-03-18T04:27:42;10.80;99.90
22765;DHT22;11549;50.852;3.816;2023-03-18T04:30:12;10.60;99.90
22765;DHT22;11549;50.852;3.816;2023-03-18T04:32:40;10.60;99.90
22765;DHT22;11549;50.852;3.816;2023-03-18T04:35:10;10.70;99.90
22765;DHT22;11549;50.852;3.816;2023-03-18T04:37:38;10.60;99.90
22765;DHT22;11549;50.852;3.816;2023-03-18T04:40:08;10.60;99.90
22765;DHT22;11549;50.852;3.816;2023-03-18T04:42:38;10.60;99.90
22765;DHT22;11549;50.852;3.816;2023-03-18T04:45:07;10.60;99.90
22765;DHT22;11549;50.852;3.816;2023-03-18T04:47:35;10.60;99.90
22765;DHT22;11549;50.852;3.816;2023-03-18T04:50:05;10.60;99.90
22765;DHT22;11549;50.852;3.816;2023-03-18T04:52:38;10.60;99.90
22765;DHT22;11549;50.852;3.816;2023-03-18T04:55:08;10.50;99.90
22765;DHT22;11549;50.852;3.816;2023-03-18T04:57:36;10.50;99.90
22765;DHT22;11549;50.852;3.816;2023-03-18T05:00:06;10.60;99.90
22765;DHT22;11549;50.852;3.816;2023-03-18T05:02:37;10.50;99.90
22765;DHT22;11549;50.852;3.816;2023-03-18T05:05:06;10.50;99.90
22765;DHT22;11549;50.852;3.816;2023-03-18T05:07:34;10.50;99.90
22765;DHT22;11549;50.852;3.816;2023-03-18T05:10:06;10.50;99.90
22765;DHT22;11549;50.852;3.816;2023-03-18T05:12:35;10.60;99.90
22765;DHT22;11549;50.852;3.816;2023-03-18T05:15:05;10.50;99.90
22765;DHT22;11549;50.852;3.816;2023-03-18T05:17:37;10.60;99.90
22765;DHT22;11549;50.852;3.816;2023-03-18T05:20:09;10.50;99.90
22765;DHT22;11549;50.852;3.816;2023-03-18T05:22:39;10.60;99.90
22765;DHT22;11549;50.852;3.816;2023-03-18T05:25:09;10.60;99.90
22765;DHT22;11549;50.852;3.816;2023-03-18T05:27:38;10.60;99.90
22765;DHT22;11549;50.852;3.816;2023-03-18T05:30:09;10.50;99.90
22765;DHT22;11549;50.852;3.816;2023-03-18T05:32:38;10.50;99.90
22765;DHT22;11549;50.852;3.816;2023-03-18T05:35:08;10.50;99.90
22765;DHT22;11549;50.852;3.816;2023-03-18T05:37:37;10.60;99.90
22765;DHT22;11549;50.852;3.816;2023-03-18T05:40:06;10.60;99.90
22765;DHT22;11549;50.852;3.816;2023-03-18T05:42:39;10.60;99.90
22765;DHT22;11549;50.852;3.816;2023-03-18T05:45:23;10.60;99.90
22765;DHT22;11549;50.852;3.816;2023-03-18T05:47:52;10.50;99.90
22765;DHT22;11549;50.852;3.816;2023-03-18T05:50:30;10.50;99.90
22765;DHT22;11549;50.852;3.816;2023-03-18T05:52:59;10.50;99.90
22765;DHT22;11549;50.852;3.816;2023-03-18T05:55:28;10.50;99.90
22765;DHT22;11549;50.852;3.816;2023-03-18T05:57:58;10.60;99.90
22765;DHT22;11549;50.852;3.816;2023-03-18T06:00:28;10.60;99.90
22765;DHT22;11549;50.852;3.816;2023-03-18T06:02:57;10.50;99.90
22765;DHT22;11549;50.852;3.816;2023-03-18T06:05:27;10.60;99.90
22765;DHT22;11549;50.852;3.816;2023-03-18T06:07:56;10.60;99.90
22765;DHT22;11549;50.852;3.816;2023-03-18T06:10:25;10.50;99.90
22765;DHT22;11549;50.852;3.816;2023-03-18T06:12:54;10.60;99.90
22765;DHT22;11549;50.852;3.816;2023-03-18T06:15:24;10.60;99.90
22765;DHT22;11549;50.852;3.816;2023-03-18T06:17:53;10.60;99.90
22765;DHT22;11549;50.852;3.816;2023-03-18T06:20:22;10.70;99.90
22765;DHT22;11549;50.852;3.816;2023-03-18T06:22:50;10.60;99.90
22765;DHT22;11549;50.852;3.816;2023-03-18T06:25:20;10.60;99.90
22765;DHT22;11549;50.852;3.816;2023-03-18T06:27:49;10.60;99.90
22765;DHT22;11549;50.852;3.816;2023-03-18T06:30:18;10.60;99.90
22765;DHT22;11549;50.852;3.816;2023-03-18T06:32:48;10.80;99.90
22765;DHT22;11549;50.852;3.816;2023-03-18T06:35:17;10.70;99.90
22765;DHT22;11549;50.852;3.816;2023-03-18T06:37:45;10.70;99.90
22765;DHT22;11549;50.852;3.816;2023-03-18T06:40:14;10.70;99.90
22765;DHT22;11549;50.852;3.816;2023-03-18T06:42:43;10.80;99.90
22765;DHT22;11549;50.852;3.816;2023-03-18T06:45:12;10.70;99.90
22765;DHT22;11549;50.852;3.816;2023-03-18T06:47:41;10.80;99.90
22765;DHT22;11549;50.852;3.816;2023-03-18T06:50:11;10.80;99.90
22765;DHT22;11549;50.852;3.816;2023-03-18T06:52:41;10.60;99.90
22765;DHT22;11549;50.852;3.816;2023-03-18T06:55:09;10.60;99.90
22765;DHT22;11549;50.852;3.816;2023-03-18T06:57:37;10.70;99.90
22765;DHT22;11549;50.852;3.816;2023-03-18T07:00:07;10.80;99.90
22765;DHT22;11549;50.852;3.816;2023-03-18T07:02:36;10.80;99.90
22765;DHT22;11549;50.852;3.816;2023-03-18T07:05:06;10.90;99.90
22765;DHT22;11549;50.852;3.816;2023-03-18T07:07:36;10.70;99.90
22765;DHT22;11549;50.852;3.816;2023-03-18T07:10:07;10.80;99.90
22765;DHT22;11549;50.852;3.816;2023-03-18T07:12:35;10.90;99.90
22765;DHT22;11549;50.852;3.816;2023-03-18T07:15:04;10.80;99.90
22765;DHT22;11549;50.852;3.816;2023-03-18T07:17:33;10.90;99.90
22765;DHT22;11549;50.852;3.816;2023-03-18T07:20:03;11.10;99.90
22765;DHT22;11549;50.852;3.816;2023-03-18T07:22:33;11.30;99.90
22765;DHT22;11549;50.852;3.816;2023-03-18T07:25:03;11.70;99.90
22765;DHT22;11549;50.852;3.816;2023-03-18T07:27:32;12.20;99.90
22765;DHT22;11549;50.852;3.816;2023-03-18T07:30:00;12.60;99.90
22765;DHT22;11549;50.852;3.816;2023-03-18T07:32:29;12.90;99.90
22765;DHT22;11549;50.852;3.816;2023-03-18T07:34:57;13.20;99.90
22765;DHT22;11549;50.852;3.816;2023-03-18T07:37:26;13.40;99.90
22765;DHT22;11549;50.852;3.816;2023-03-18T07:39:54;13.80;99.90
22765;DHT22;11549;50.852;3.816;2023-03-18T07:42:24;13.80;99.90
22765;DHT22;11549;50.852;3.816;2023-03-18T07:44:52;13.50;99.90
22765;DHT22;11549;50.852;3.816;2023-03-18T07:47:21;13.30;99.90
22765;DHT22;11549;50.852;3.816;2023-03-18T07:49:50;13.00;99.90
22765;DHT22;11549;50.852;3.816;2023-03-18T07:52:19;12.60;99.90
22765;DHT22;11549;50.852;3.816;2023-03-18T07:54:47;12.60;99.90
22765;DHT22;11549;50.852;3.816;2023-03-18T07:57:15;12.60;99.90
22765;DHT22;11549;50.852;3.816;2023-03-18T07:59:45;12.70;99.90
22765;DHT22;11549;50.852;3.816;2023-03-18T08:02:14;12.60;99.90
22765;DHT22;11549;50.852;3.816;2023-03-18T08:04:42;12.50;99.90
22765;DHT22;11549;50.852;3.816;2023-03-18T08:07:12;12.40;99.90
22765;DHT22;11549;50.852;3.816;2023-03-18T08:09:41;12.50;99.90
22765;DHT22;11549;50.852;3.816;2023-03-18T08:12:09;12.50;99.90
22765;DHT22;11549;50.852;3.816;2023-03-18T08:14:38;12.40;99.90
22765;DHT22;11549;50.852;3.816;2023-03-18T08:17:08;12.40;99.90
22765;DHT22;11549;50.852;3.816;2023-03-18T08:19:36;12.40;99.90
22765;DHT22;11549;50.852;3.816;2023-03-18T08:22:04;12.40;99.90
22765;DHT22;11549;50.852;3.816;2023-03-18T08:24:34;12.40;99.90
22765;DHT22;11549;50.852;3.816;2023-03-18T08:27:03;12.50;99.90
22765;DHT22;11549;50.852;3.816;2023-03-18T08:29:32;12.20;99.90
22765;DHT22;11549;50.852;3.816;2023-03-18T08:32:01;12.10;99.90
22765;DHT22;11549;50.852;3.816;2023-03-18T08:34:31;12.20;99.90
22765;DHT22;11549;50.852;3.816;2023-03-18T08:37:00;12.20;99.90
22765;DHT22;11549;50.852;3.816;2023-03-18T08:39:28;12.30;99.90
22765;DHT22;11549;50.852;3.816;2023-03-18T08:41:56;12.40;99.90
22765;DHT22;11549;50.852;3.816;2023-03-18T08:44:25;12.40;99.90
22765;DHT22;11549;50.852;3.816;2023-03-18T08:46:53;12.20;99.90
22765;DHT22;11549;50.852;3.816;2023-03-18T08:49:22;12.30;99.90
22765;DHT22;11549;50.852;3.816;2023-03-18T08:51:52;12.30;99.90
22765;DHT22;11549;50.852;3.816;2023-03-18T08:54:21;12.10;99.90
22765;DHT22;11549;50.852;3.816;2023-03-18T08:56:49;12.20;99.90
22765;DHT22;11549;50.852;3.816;2023-03-18T08:59:18;12.20;99.90
22765;DHT22;11549;50.852;3.816;2023-03-18T09:01:47;12.10;99.90
22765;DHT22;11549;50.852;3.816;2023-03-18T09:04:16;12.20;99.90
22765;DHT22;11549;50.852;3.816;2023-03-18T09:06:46;12.20;99.90
22765;DHT22;11549;50.852;3.816;2023-03-18T09:09:17;12.20;99.90
22765;DHT22;11549;50.852;3.816;2023-03-18T09:11:47;12.30;99.90
22765;DHT22;11549;50.852;3.816;2023-03-18T09:14:15;12.40;99.90
22765;DHT22;11549;50.852;3.816;2023-03-18T09:16:44;12.30;99.90
22765;DHT22;11549;50.852;3.816;2023-03-18T09:19:12;12.30;99.90
22765;DHT22;11549;50.852;3.816;2023-03-18T09:21:41;12.40;99.90
22765;DHT22;11549;50.852;3.816;2023-03-18T09:24:09;12.50;99.90
22765;DHT22;11549;50.852;3.816;2023-03-18T09:26:39;12.60;99.90
22765;DHT22;11549;50.852;3.816;2023-03-18T09:29:08;12.70;99.90
22765;DHT22;11549;50.852;3.816;2023-03-18T09:31:36;12.70;99.90
22765;DHT22;11549;50.852;3.816;2023-03-18T09:34:05;12.70;99.90
22765;DHT22;11549;50.852;3.816;2023-03-18T09:36:33;12.80;99.90
22765;DHT22;11549;50.852;3.816;2023-03-18T09:39:01;12.90;99.90
22765;DHT22;11549;50.852;3.816;2023-03-18T09:41:41;12.80;99.90
22765;DHT22;11549;50.852;3.816;2023-03-18T09:44:21;12.70;99.90
22765;DHT22;11549;50.852;3.816;2023-03-18T09:47:07;12.70;99.90
22765;DHT22;11549;50.852;3.816;2023-03-18T09:49:47;12.90;99.90
22765;DHT22;11549;50.852;3.816;2023-03-18T09:52:22;12.90;99.90
22765;DHT22;11549;50.852;3.816;2023-03-18T09:54:55;12.90;99.90
22765;DHT22;11549;50.852;3.816;2023-03-18T09:57:30;13.00;99.90
22765;DHT22;11549;50.852;3.816;2023-03-18T10:00:03;13.00;99.90
22765;DHT22;11549;50.852;3.816;2023-03-18T10:02:39;13.20;99.90
22765;DHT22;11549;50.852;3.816;2023-03-18T10:05:09;13.30;99.90
22765;DHT22;11549;50.852;3.816;2023-03-18T10:07:40;13.50;99.90
22765;DHT22;11549;50.852;3.816;2023-03-18T10:10:19;13.50;99.90
22765;DHT22;11549;50.852;3.816;2023-03-18T10:12:55;13.60;99.90
22765;DHT22;11549;50.852;3.816;2023-03-18T10:15:29;13.60;99.90
22765;DHT22;11549;50.852;3.816;2023-03-18T10:18:02;13.60;99.90
22765;DHT22;11549;50.852;3.816;2023-03-18T10:20:38;13.90;99.90
22765;DHT22;11549;50.852;3.816;2023-03-18T10:23:22;14.10;99.90
22765;DHT22;11549;50.852;3.816;2023-03-18T10:25:57;14.30;99.90
22765;DHT22;11549;50.852;3.816;2023-03-18T10:31:33;14.80;99.90
22765;DHT22;11549;50.852;3.816;2023-03-18T10:34:06;15.30;99.90
22765;DHT22;11549;50.852;3.816;2023-03-18T10:36:45;15.50;99.90
22765;DHT22;11549;50.852;3.816;2023-03-18T10:39:19;15.60;99.90
22765;DHT22;11549;50.852;3.816;2023-03-18T10:41:49;16.00;99.90
22765;DHT22;11549;50.852;3.816;2023-03-18T10:44:23;16.40;99.90
22765;DHT22;11549;50.852;3.816;2023-03-18T10:46:57;16.50;99.90
22765;DHT22;11549;50.852;3.816;2023-03-18T10:49:28;16.60;99.90
22765;DHT22;11549;50.852;3.816;2023-03-18T10:52:03;16.80;99.90
22765;DHT22;11549;50.852;3.816;2023-03-18T10:54:36;16.90;99.90
22765;DHT22;11549;50.852;3.816;2023-03-18T10:57:09;16.70;99.90
22765;DHT22;11549;50.852;3.816;2023-03-18T10:59:41;16.70;99.90
22765;DHT22;11549;50.852;3.816;2023-03-18T11:02:14;16.60;99.90
22765;DHT22;11549;50.852;3.816;2023-03-18T11:04:48;16.20;99.90
22765;DHT22;11549;50.852;3.816;2023-03-18T11:07:23;16.00;99.90
22765;DHT22;11549;50.852;3.816;2023-03-18T11:09:52;15.80;99.90
22765;DHT22;11549;50.852;3.816;2023-03-18T11:12:24;16.20;99.90
22765;DHT22;11549;50.852;3.816;2023-03-18T11:14:55;16.50;99.90
22765;DHT22;11549;50.852;3.816;2023-03-18T11:17:26;16.70;99.90
22765;DHT22;11549;50.852;3.816;2023-03-18T11:20:04;17.00;99.90
22765;DHT22;11549;50.852;3.816;2023-03-18T11:22:35;17.30;99.90
22765;DHT22;11549;50.852;3.816;2023-03-18T11:25:12;17.20;99.90
22765;DHT22;11549;50.852;3.816;2023-03-18T11:27:42;17.00;99.90
22765;DHT22;11549;50.852;3.816;2023-03-18T11:30:19;17.00;99.90
22765;DHT22;11549;50.852;3.816;2023-03-18T11:33:11;17.10;99.90
22765;DHT22;11549;50.852;3.816;2023-03-18T11:35:44;17.30;99.90
22765;DHT22;11549;50.852;3.816;2023-03-18T11:38:15;17.50;99.90
22765;DHT22;11549;50.852;3.816;2023-03-18T11:40:44;17.70;99.90
22765;DHT22;11549;50.852;3.816;2023-03-18T11:43:18;17.60;99.90
22765;DHT22;11549;50.852;3.816;2023-03-18T11:45:53;17.60;99.90
22765;DHT22;11549;50.852;3.816;2023-03-18T11:48:29;17.30;99.90
22765;DHT22;11549;50.852;3.816;2023-03-18T11:51:22;17.30;99.90
22765;DHT22;11549;50.852;3.816;2023-03-18T11:54:11;17.50;99.90
22765;DHT22;11549;50.852;3.816;2023-03-18T11:56:44;17.50;99.90
22765;DHT22;11549;50.852;3.816;2023-03-18T11:59:31;17.80;99.90
22765;DHT22;11549;50.852;3.816;2023-03-18T12:02:18;18.00;99.90
22765;DHT22;11549;50.852;3.816;2023-03-18T12:04:59;18.00;99.90
22765;DHT22;11549;50.852;3.816;2023-03-18T12:07:42;18.00;99.90
22765;DHT22;11549;50.852;3.816;2023-03-18T12:10:18;17.90;99.90
22765;DHT22;11549;50.852;3.816;2023-03-18T12:13:03;18.00;99.90
22765;DHT22;11549;50.852;3.816;2023-03-18T12:15:45;18.40;99.90
22765;DHT22;11549;50.852;3.816;2023-03-18T12:18:26;18.70;99.90
22765;DHT22;11549;50.852;3.816;2023-03-18T12:20:59;18.80;99.90
22765;DHT22;11549;50.852;3.816;2023-03-18T12:23:48;18.90;99.90
22765;DHT22;11549;50.852;3.816;2023-03-18T12:26:27;19.00;99.90
22765;DHT22;11549;50.852;3.816;2023-03-18T12:29:27;19.10;99.90
22765;DHT22;11549;50.852;3.816;2023-03-18T12:32:12;19.20;99.90
22765;DHT22;11549;50.852;3.816;2023-03-18T12:35:03;19.00;99.90
22765;DHT22;11549;50.852;3.816;2023-03-18T12:37:41;18.80;99.90
22765;DHT22;11549;50.852;3.816;2023-03-18T12:43:31;17.90;99.90
22765;DHT22;11549;50.852;3.816;2023-03-18T12:46:09;17.70;99.90
22765;DHT22;11549;50.852;3.816;2023-03-18T12:48:51;17.80;99.90
22765;DHT22;11549;50.852;3.816;2023-03-18T12:51:25;17.70;99.90
22765;DHT22;11549;50.852;3.816;2023-03-18T12:54:09;17.60;99.90
22765;DHT22;11549;50.852;3.816;2023-03-18T12:56:44;17.50;99.90
22765;DHT22;11549;50.852;3.816;2023-03-18T12:59:22;17.60;99.90
22765;DHT22;11549;50.852;3.816;2023-03-18T13:01:59;17.70;99.90
22765;DHT22;11549;50.852;3.816;2023-03-18T13:04:31;17.70;99.90
22765;DHT22;11549;50.852;3.816;2023-03-18T13:07:07;17.90;99.90
22765;DHT22;11549;50.852;3.816;2023-03-18T13:09:44;18.00;99.90
22765;DHT22;11549;50.852;3.816;2023-03-18T13:12:17;18.00;99.90
22765;DHT22;11549;50.852;3.816;2023-03-18T13:14:53;18.00;99.90
22765;DHT22;11549;50.852;3.816;2023-03-18T13:17:28;17.80;99.90
22765;DHT22;11549;50.852;3.816;2023-03-18T13:19:58;17.50;99.90
22765;DHT22;11549;50.852;3.816;2023-03-18T13:22:46;17.50;99.90
22765;DHT22;11549;50.852;3.816;2023-03-18T13:25:27;17.40;99.90
22765;DHT22;11549;50.852;3.816;2023-03-18T13:28:06;17.40;99.90
22765;DHT22;11549;50.852;3.816;2023-03-18T13:30:50;17.20;99.90
22765;DHT22;11549;50.852;3.816;2023-03-18T13:33:31;17.00;99.90
22765;DHT22;11549;50.852;3.816;2023-03-18T13:36:17;17.00;99.90
22765;DHT22;11549;50.852;3.816;2023-03-18T13:39:07;17.00;99.90
22765;DHT22;11549;50.852;3.816;2023-03-18T13:41:55;17.10;99.90
22765;DHT22;11549;50.852;3.816;2023-03-18T13:44:37;17.20;99.90
22765;DHT22;11549;50.852;3.816;2023-03-18T13:47:14;17.10;99.90
22765;DHT22;11549;50.852;3.816;2023-03-18T13:49:43;17.00;99.90
22765;DHT22;11549;50.852;3.816;2023-03-18T13:52:34;16.80;99.90
22765;DHT22;11549;50.852;3.816;2023-03-18T13:55:11;16.70;99.90
22765;DHT22;11549;50.852;3.816;2023-03-18T13:57:46;16.60;99.90
22765;DHT22;11549;50.852;3.816;2023-03-18T14:00:33;16.60;99.90
22765;DHT22;11549;50.852;3.816;2023-03-18T14:03:17;16.60;99.90
22765;DHT22;11549;50.852;3.816;2023-03-18T14:05:49;16.60;99.90
22765;DHT22;11549;50.852;3.816;2023-03-18T14:08:44;16.60;99.90
22765;DHT22;11549;50.852;3.816;2023-03-18T14:11:47;16.70;99.90
22765;DHT22;11549;50.852;3.816;2023-03-18T14:14:40;16.60;99.90
22765;DHT22;11549;50.852;3.816;2023-03-18T14:17:20;16.70;99.90
22765;DHT22;11549;50.852;3.816;2023-03-18T14:19:53;16.70;99.90
22765;DHT22;11549;50.852;3.816;2023-03-18T14:22:25;16.50;99.90
22765;DHT22;11549;50.852;3.816;2023-03-18T14:25:19;16.50;99.90
22765;DHT22;11549;50.852;3.816;2023-03-18T14:27:53;16.50;99.90
22765;DHT22;11549;50.852;3.816;2023-03-18T14:30:43;16.50;99.90
22765;DHT22;11549;50.852;3.816;2023-03-18T14:33:39;16.50;99.90
22765;DHT22;11549;50.852;3.816;2023-03-18T14:36:14;16.60;99.90
22765;DHT22;11549;50.852;3.816;2023-03-18T14:38:45;16.60;99.90
22765;DHT22;11549;50.852;3.816;2023-03-18T14:41:20;16.60;99.90
22765;DHT22;11549;50.852;3.816;2023-03-18T14:44:05;16.40;99.90
22765;DHT22;11549;50.852;3.816;2023-03-18T14:46:38;16.50;99.90
22765;DHT22;11549;50.852;3.816;2023-03-18T14:49:31;16.60;99.90
22765;DHT22;11549;50.852;3.816;2023-03-18T14:52:04;16.60;99.90
22765;DHT22;11549;50.852;3.816;2023-03-18T14:54:39;16.60;99.90
22765;DHT22;11549;50.852;3.816;2023-03-18T14:57:09;16.60;99.90
22765;DHT22;11549;50.852;3.816;2023-03-18T14:59:39;16.60;99.90
22765;DHT22;11549;50.852;3.816;2023-03-18T15:02:18;16.50;99.90
22765;DHT22;11549;50.852;3.816;2023-03-18T15:04:50;16.40;99.90
22765;DHT22;11549;50.852;3.816;2023-03-18T15:07:23;16.50;99.90
22765;DHT22;11549;50.852;3.816;2023-03-18T15:09:54;16.30;99.90
22765;DHT22;11549;50.852;3.816;2023-03-18T15:12:25;16.40;99.90
22765;DHT22;11549;50.852;3.816;2023-03-18T15:14:55;16.30;99.90
22765;DHT22;11549;50.852;3.816;2023-03-18T15:17:24;16.30;99.90
22765;DHT22;11549;50.852;3.816;2023-03-18T15:19:57;16.30;99.90
22765;DHT22;11549;50.852;3.816;2023-03-18T15:22:29;16.30;99.90
22765;DHT22;11549;50.852;3.816;2023-03-18T15:25:00;16.20;99.90
22765;DHT22;11549;50.852;3.816;2023-03-18T15:27:31;16.20;99.90
22765;DHT22;11549;50.852;3.816;2023-03-18T15:30:04;16.20;99.90
22765;DHT22;11549;50.852;3.816;2023-03-18T15:32:44;16.00;99.90
22765;DHT22;11549;50.852;3.816;2023-03-18T15:35:16;16.00;99.90
22765;DHT22;11549;50.852;3.816;2023-03-18T15:37:46;15.90;99.90
22765;DHT22;11549;50.852;3.816;2023-03-18T15:40:28;15.90;99.90
22765;DHT22;11549;50.852;3.816;2023-03-18T15:43:02;15.90;99.90
22765;DHT22;11549;50.852;3.816;2023-03-18T15:45:32;15.90;99.90
22765;DHT22;11549;50.852;3.816;2023-03-18T15:48:04;15.90;99.90
22765;DHT22;11549;50.852;3.816;2023-03-18T15:50:35;15.90;99.90
22765;DHT22;11549;50.852;3.816;2023-03-18T15:53:15;15.70;99.90
22765;DHT22;11549;50.852;3.816;2023-03-18T15:55:49;15.70;99.90
22765;DHT22;11549;50.852;3.816;2023-03-18T15:58:21;15.60;99.90
22765;DHT22;11549;50.852;3.816;2023-03-18T16:00:51;15.40;99.90
22765;DHT22;11549;50.852;3.816;2023-03-18T16:03:23;15.30;99.90
22765;DHT22;11549;50.852;3.816;2023-03-18T16:05:52;15.10;99.90
22765;DHT22;11549;50.852;3.816;2023-03-18T16:08:21;15.10;99.90
22765;DHT22;11549;50.852;3.816;2023-03-18T16:10:51;15.10;99.90